Time;durP1;ratioP1;P1;durP2;ratioP2;P2;SDS_P1;SDS_P2;PMS_P1;PMS_P2;Temp;Humidity;BMP_temperature;BMP_pressure;BME280_temperature;BME280_humidity;BME280_pressure;Samples;Min_cycle;Max_cycle;Signal;HPM_P1;HPM_P2
2021/09/07 00:00:20;;;;;;;;;;;;;;;16.29;61.23;97575.44;30001;986;1867;-61
2021/09/07 00:00:53;;;;;;;;;;;;;;;16.28;60.96;97571.09;30001;982;1880;-61
2021/09/07 00:01:24;;;;;;;;;;;;;;;16.27;61.03;97569.47;30001;982;1875;-63
2021/09/07 00:01:54;;;;;;;;;;;;;;;16.27;61.22;97569.47;30001;982;1880;-61
2021/09/07 00:02:25;;;;;;;;;;;;;;;16.26;61.37;97573.34;30001;982;1876;-61
2021/09/07 00:02:57;;;;;;;;;;;;;;;16.25;61.16;97578.00;30001;982;1880;-61
2021/09/07 00:03:27;;;;;;;;;;;;;;;16.26;61.26;97570.59;30001;983;1857;-61
2021/09/07 00:03:58;;;;;;;;;;;;;;;16.26;61.25;97576.09;30001;983;1875;-60
2021/09/07 00:04:29;;;;;;;;;;;;;;;16.26;61.33;97573.34;30001;983;1875;-61
2021/09/07 00:05:00;;;;;;;;;;;;;;;16.25;61.11;97572.53;30001;983;1879;-60
2021/09/07 00:05:31;;;;;;;;;;;;;;;16.26;61.32;97573.34;30001;983;1875;-60
2021/09/07 00:06:02;;;;;;;;;;;;;;;16.26;61.50;97573.34;30001;983;1879;-64
2021/09/07 00:06:32;;;;;;;;;;;;;;;16.26;61.55;97573.34;30001;983;1875;-59
2021/09/07 00:07:04;;;;;;;;;;;;;;;16.25;61.30;97571.72;30001;983;1879;-63
2021/09/07 00:07:35;;;;;;;;;;;;;;;16.24;61.65;97570.09;30001;962;1897;-61
2021/09/07 00:08:09;;;;;;;;;;;;;;;16.22;61.39;97570.41;30001;983;1880;-60
2021/09/07 00:08:40;;;;;;;;;;;;;;;16.21;61.21;97577.00;30001;982;1858;-61
2021/09/07 00:09:11;;;;;;;;;;;;;;;16.20;61.26;97577.31;30001;982;1876;-61
2021/09/07 00:09:41;;;;;;;;;;;;;;;16.18;61.31;97577.63;30001;982;1876;-65
2021/09/07 00:10:13;;;;;;;;;;;;;;;16.18;61.15;97572.16;30001;982;1880;-60
2021/09/07 00:10:43;;;;;;;;;;;;;;;16.18;61.15;97577.63;30001;982;1876;-62
2021/09/07 00:11:15;;;;;;;;;;;;;;;16.19;61.33;97578.44;30001;983;1862;-64
2021/09/07 00:11:46;;;;;;;;;;;;;;;16.18;61.14;97565.88;30001;983;1871;-61
2021/09/07 00:12:17;;;;;;;;;;;;;;;16.17;61.21;97570.53;30001;983;1879;-63
2021/09/07 00:12:49;;;;;;;;;;;;;;;16.18;61.01;97574.09;30001;983;1875;-60
2021/09/07 00:13:19;;;;;;;;;;;;;;;16.17;61.14;97570.53;30001;983;1879;-61
2021/09/07 00:13:50;;;;;;;;;;;;;;;16.17;61.14;97569.72;30001;983;1875;-65
2021/09/07 00:14:21;;;;;;;;;;;;;;;16.17;61.30;97569.72;30001;983;1880;-59
2021/09/07 00:14:52;;;;;;;;;;;;;;;16.17;61.13;97567.00;30001;983;1858;-61
2021/09/07 00:15:24;;;;;;;;;;;;;;;16.17;61.16;97569.72;30001;983;1875;-65
2021/09/07 00:15:55;;;;;;;;;;;;;;;16.17;60.84;97570.53;30001;982;1875;-61
2021/09/07 00:16:26;;;;;;;;;;;;;;;16.19;60.86;97578.44;30001;982;1880;-63
2021/09/07 00:16:57;;;;;;;;;;;;;;;16.18;60.97;97565.88;30001;982;1876;-64
2021/09/07 00:17:28;;;;;;;;;;;;;;;16.17;60.68;97561.53;30001;982;1880;-61
2021/09/07 00:17:58;;;;;;;;;;;;;;;16.16;60.99;97568.13;30001;982;1876;-60
2021/09/07 00:18:29;;;;;;;;;;;;;;;16.16;60.70;97574.41;30001;983;1862;-60
2021/09/07 00:19:00;;;;;;;;;;;;;;;16.16;60.88;97570.84;30001;983;1870;-63
2021/09/07 00:19:31;;;;;;;;;;;;;;;16.16;60.75;97563.44;30001;983;1879;-60
2021/09/07 00:20:03;;;;;;;;;;;;;;;16.15;60.71;97567.31;30001;983;1875;-60
2021/09/07 00:20:34;;;;;;;;;;;;;;;16.16;60.75;97568.13;30001;983;1879;-60
2021/09/07 00:21:05;;;;;;;;;;;;;;;16.15;60.78;97564.56;30001;983;1761;-60
2021/09/07 00:21:36;;;;;;;;;;;;;;;16.14;60.63;97564.88;30001;983;1875;-63
2021/09/07 00:22:07;;;;;;;;;;;;;;;16.14;60.82;97564.88;30001;983;1875;-62
2021/09/07 00:22:39;;;;;;;;;;;;;;;16.14;60.58;97562.16;30001;983;1880;-60
2021/09/07 00:23:10;;;;;;;;;;;;;;;16.13;61.04;97564.06;30001;983;1875;-60
2021/09/07 00:23:46;;;;;;;;;;;;;;;16.13;61.00;97557.78;30001;982;1862;-60
2021/09/07 00:24:19;;;;;;;;;;;;;;;16.11;61.14;97565.50;30001;982;1871;-63
2021/09/07 00:24:50;;;;;;;;;;;;;;;16.11;60.79;97568.25;30001;982;1880;-60
2021/09/07 00:25:21;;;;;;;;;;;;;;;16.08;61.17;97573.22;30001;982;1876;-59
2021/09/07 00:25:52;;;;;;;;;;;;;;;16.08;60.85;97562.25;30001;983;1879;-63
2021/09/07 00:26:23;;;;;;;;;;;;;;;16.07;61.12;97571.59;30001;983;1857;-61
2021/09/07 00:26:54;;;;;;;;;;;;;;;16.07;61.16;97566.12;30001;985;1867;-62
2021/09/07 00:27:25;;;;;;;;;;;;;;;16.07;60.89;97559.84;30001;983;1862;-61
2021/09/07 00:27:59;;;;;;;;;;;;;;;16.06;61.04;97567.25;30001;983;1871;-60
2021/09/07 00:28:29;;;;;;;;;;;;;;;16.07;61.48;97565.31;30001;983;1879;-62
2021/09/07 00:29:01;;;;;;;;;;;;;;;16.07;61.18;97571.59;30001;983;1875;-60
2021/09/07 00:29:33;;;;;;;;;;;;;;;16.07;61.07;97566.12;30001;983;1862;-61
2021/09/07 00:30:05;;;;;;;;;;;;;;;16.06;60.98;97569.16;30001;982;1871;-61
2021/09/07 00:30:36;;;;;;;;;;;;;;;16.05;61.51;97564.81;30001;982;1880;-60
2021/09/07 00:31:08;;;;;;;;;;;;;;;16.04;61.33;97561.28;30001;982;1875;-63
2021/09/07 00:31:38;;;;;;;;;;;;;;;16.03;61.43;97564.31;30001;973;1897;-61
2021/09/07 00:32:09;;;;;;;;;;;;;;;16.01;61.49;97567.38;30001;982;1876;-63
2021/09/07 00:32:40;;;;;;;;;;;;;;;16.01;61.28;97561.87;30001;982;1880;-62
2021/09/07 00:33:11;;;;;;;;;;;;;;;16.01;61.68;97563.81;30001;982;1876;-60
2021/09/07 00:33:42;;;;;;;;;;;;;;;16.00;61.70;97565.75;30001;983;1862;-60
2021/09/07 00:34:13;;;;;;;;;;;;;;;15.99;61.70;97557.84;30001;983;1870;-63
2021/09/07 00:34:45;;;;;;;;;;;;;;;15.99;61.69;97569.59;30001;983;1862;-60
2021/09/07 00:35:15;;;;;;;;;;;;;;;15.98;61.54;97562.50;30001;983;1871;-61
2021/09/07 00:35:46;;;;;;;;;;;;;;;15.98;61.75;97564.44;30001;983;1880;-61
2021/09/07 00:36:17;;;;;;;;;;;;;;;15.96;61.57;97564.75;30001;983;1875;-64
2021/09/07 00:36:48;;;;;;;;;;;;;;;15.96;62.05;97567.47;30001;983;1862;-64
2021/09/07 00:37:19;;;;;;;;;;;;;;;15.95;61.92;97562.31;30001;983;1871;-61
2021/09/07 00:37:50;;;;;;;;;;;;;;;15.95;62.12;97563.13;30001;982;1880;-65
2021/09/07 00:38:21;;;;;;;;;;;;;;;15.94;61.88;97561.50;30001;982;1875;-61
2021/09/07 00:38:52;;;;;;;;;;;;;;;15.93;62.36;97565.41;30001;982;1880;-61
2021/09/07 00:39:24;;;;;;;;;;;;;;;15.92;62.30;97563.78;30001;982;1876;-60
2021/09/07 00:39:55;;;;;;;;;;;;;;;15.91;62.50;97567.63;30001;982;1880;-63
2021/09/07 00:40:26;;;;;;;;;;;;;;;15.90;62.02;97562.47;30001;982;1876;-60
2021/09/07 00:40:57;;;;;;;;;;;;;;;15.89;62.23;97564.41;30001;983;1879;-62
2021/09/07 00:41:28;;;;;;;;;;;;;;;15.86;62.44;97556.81;30001;983;1875;-62
2021/09/07 00:41:59;;;;;;;;;;;;;;;15.86;62.54;97562.28;30001;983;1862;-63
2021/09/07 00:42:34;;;;;;;;;;;;;;;15.85;62.24;97566.12;30001;983;1853;-63
2021/09/07 00:43:05;;;;;;;;;;;;;;;15.85;62.56;97557.94;30001;983;1879;-60
2021/09/07 00:43:39;;;;;;;;;;;;;;;15.84;62.72;97555.50;30001;983;1858;-64
2021/09/07 00:44:20;;;;;;;;;;;;;;;15.84;62.66;97555.50;30001;983;1875;-60
2021/09/07 00:44:51;;;;;;;;;;;;;;;15.81;62.43;97556.91;30001;983;1875;-62
2021/09/07 00:45:21;;;;;;;;;;;;;;;15.81;62.82;97556.91;30001;982;1880;-60
2021/09/07 00:45:52;;;;;;;;;;;;;;;15.79;62.42;97556.41;30001;982;1875;-60
2021/09/07 00:46:23;;;;;;;;;;;;;;;15.78;62.70;97554.00;30001;982;1880;-59
2021/09/07 00:46:56;;;;;;;;;;;;;;;15.77;63.00;97550.44;30001;982;1876;-62
2021/09/07 00:47:27;;;;;;;;;;;;;;;15.77;62.70;97555.91;30001;982;1880;-62
2021/09/07 00:47:58;;;;;;;;;;;;;;;15.76;62.85;97559.78;30001;982;1876;-61
2021/09/07 00:48:28;;;;;;;;;;;;;;;15.75;62.74;97552.69;30001;982;1880;-60
2021/09/07 00:48:59;;;;;;;;;;;;;;;15.75;62.78;97558.16;30001;983;1857;-61
2021/09/07 00:49:31;;;;;;;;;;;;;;;15.74;63.06;97556.53;30001;983;1857;-62
2021/09/07 00:50:02;;;;;;;;;;;;;;;15.74;63.03;97553.81;30001;983;1875;-63
2021/09/07 00:50:33;;;;;;;;;;;;;;;15.73;63.19;97554.91;30001;983;1879;-60
2021/09/07 00:51:04;;;;;;;;;;;;;;;15.72;62.96;97562.31;30001;962;1800;-61
2021/09/07 00:51:36;;;;;;;;;;;;;;;15.72;63.29;97551.38;30001;983;1880;-63
2021/09/07 00:52:07;;;;;;;;;;;;;;;15.72;63.17;97561.50;30001;983;1875;-62
2021/09/07 00:52:38;;;;;;;;;;;;;;;15.72;63.01;97561.50;30001;983;1880;-59
2021/09/07 00:53:09;;;;;;;;;;;;;;;15.71;63.25;97551.69;30001;982;1875;-61
2021/09/07 00:53:41;;;;;;;;;;;;;;;15.71;63.20;97559.91;30001;982;1862;-62
2021/09/07 00:54:13;;;;;;;;;;;;;;;15.70;63.03;97555.53;30001;982;1871;-61
2021/09/07 00:54:45;;;;;;;;;;;;;;;15.70;63.06;97558.28;30001;982;1880;-61
2021/09/07 00:55:17;;;;;;;;;;;;;;;15.70;62.96;97555.53;30001;982;1876;-62
2021/09/07 00:55:50;;;;;;;;;;;;;;;15.69;63.33;97551.19;30001;982;1880;-61
2021/09/07 00:56:21;;;;;;;;;;;;;;;15.69;63.38;97556.66;30001;983;1875;-59
2021/09/07 00:56:53;;;;;;;;;;;;;;;15.67;63.26;97556.16;30001;983;1879;-64
2021/09/07 00:57:25;;;;;;;;;;;;;;;15.67;63.09;97556.16;30001;983;1875;-63
2021/09/07 00:57:56;;;;;;;;;;;;;;;15.66;63.00;97555.34;30001;983;1879;-64
2021/09/07 00:58:30;;;;;;;;;;;;;;;15.66;63.15;97554.53;30001;983;1857;-63
2021/09/07 00:59:03;;;;;;;;;;;;;;;15.65;63.50;97559.19;30001;983;1875;-63
2021/09/07 00:59:37;;;;;;;;;;;;;;;15.66;63.46;97560.00;30001;983;1875;-60
2021/09/07 01:00:08;;;;;;;;;;;;;;;15.67;63.36;97556.16;30001;983;1880;-60
2021/09/07 01:00:40;;;;;;;;;;;;;;;15.66;63.15;97560.81;30001;982;1858;-66
2021/09/07 01:01:11;;;;;;;;;;;;;;;15.65;63.20;97559.19;30001;982;1858;-65
2021/09/07 01:01:42;;;;;;;;;;;;;;;15.65;63.14;97558.38;30001;982;1876;-63
2021/09/07 01:02:13;;;;;;;;;;;;;;;15.66;63.46;97560.00;30001;982;1880;-66
2021/09/07 01:02:44;;;;;;;;;;;;;;;15.66;63.26;97565.47;30001;982;1876;-60
2021/09/07 01:03:15;;;;;;;;;;;;;;;15.66;63.54;97551.81;30001;983;1879;-61
2021/09/07 01:03:46;;;;;;;;;;;;;;;15.68;63.28;97560.50;30001;983;1857;-60
2021/09/07 01:04:17;;;;;;;;;;;;;;;15.67;63.45;97556.16;30001;983;1875;-61
2021/09/07 01:04:48;;;;;;;;;;;;;;;15.67;63.08;97556.16;30001;983;1875;-63
2021/09/07 01:05:19;;;;;;;;;;;;;;;15.66;63.50;97557.28;30001;983;1879;-62
2021/09/07 01:05:50;;;;;;;;;;;;;;;15.67;63.53;97556.16;30001;983;1875;-60
2021/09/07 01:06:21;;;;;;;;;;;;;;;15.69;63.54;97553.91;30001;983;1880;-61
2021/09/07 01:06:52;;;;;;;;;;;;;;;15.68;63.24;97557.78;30001;983;1875;-60
2021/09/07 01:07:23;;;;;;;;;;;;;;;15.68;63.45;97552.31;30001;983;1880;-60
2021/09/07 01:07:54;;;;;;;;;;;;;;;15.68;63.28;97550.38;30001;982;1858;-60
2021/09/07 01:08:25;;;;;;;;;;;;;;;15.68;63.74;97552.31;30001;982;1875;-61
2021/09/07 01:08:57;;;;;;;;;;;;;;;15.68;63.25;97560.50;30001;982;1876;-61
2021/09/07 01:09:28;;;;;;;;;;;;;;;15.66;63.69;97565.47;30001;982;1880;-60
2021/09/07 01:09:59;;;;;;;;;;;;;;;15.65;63.21;97552.91;30001;982;1876;-60
2021/09/07 01:10:30;;;;;;;;;;;;;;;15.64;63.57;97551.31;30001;983;1879;-60
2021/09/07 01:11:00;;;;;;;;;;;;;;;15.61;63.51;97552.72;30001;983;1779;-60
2021/09/07 01:11:31;;;;;;;;;;;;;;;15.61;63.73;97551.91;30001;983;1862;-60
2021/09/07 01:12:03;;;;;;;;;;;;;;;15.62;63.82;97553.53;30001;983;1871;-61
2021/09/07 01:12:34;;;;;;;;;;;;;;;15.59;63.91;97549.53;30001;983;1879;-60
2021/09/07 01:13:04;;;;;;;;;;;;;;;15.58;64.01;97552.56;30001;983;1875;-61
2021/09/07 01:13:35;;;;;;;;;;;;;;;15.56;64.14;97554.75;30001;983;1879;-60
2021/09/07 01:14:06;;;;;;;;;;;;;;;15.56;64.12;97546.56;30001;983;1875;-60
2021/09/07 01:14:38;;;;;;;;;;;;;;;15.55;64.04;97550.41;30001;983;1880;-60
2021/09/07 01:15:10;;;;;;;;;;;;;;;15.53;64.15;97549.91;30001;983;1875;-60
2021/09/07 01:15:41;;;;;;;;;;;;;;;15.52;64.04;97548.28;30001;982;1880;-61
2021/09/07 01:16:13;;;;;;;;;;;;;;;15.50;64.41;97545.06;30001;982;1876;-60
2021/09/07 01:16:44;;;;;;;;;;;;;;;15.50;64.45;97545.88;30001;982;1862;-61
2021/09/07 01:17:17;;;;;;;;;;;;;;;15.49;64.24;97549.72;30001;982;1854;-61
2021/09/07 01:17:47;;;;;;;;;;;;;;;15.46;64.56;97546.78;30001;982;1880;-60
2021/09/07 01:18:18;;;;;;;;;;;;;;;15.45;64.14;97554.19;30001;983;1875;-61
2021/09/07 01:18:49;;;;;;;;;;;;;;;15.43;64.50;97557.22;30001;983;1879;-61
2021/09/07 01:19:20;;;;;;;;;;;;;;;15.44;64.37;97558.03;30001;983;1875;-60
2021/09/07 01:19:51;;;;;;;;;;;;;;;15.43;64.25;97557.22;30001;983;1879;-61
2021/09/07 01:20:22;;;;;;;;;;;;;;;15.45;64.41;97553.38;30001;983;1875;-60
2021/09/07 01:20:52;;;;;;;;;;;;;;;15.45;64.08;97556.09;30001;983;1879;-60
2021/09/07 01:21:23;;;;;;;;;;;;;;;15.45;64.10;97553.38;30001;983;1875;-60
2021/09/07 01:21:54;;;;;;;;;;;;;;;15.45;63.97;97553.38;30001;983;1862;-60
2021/09/07 01:22:25;;;;;;;;;;;;;;;15.45;64.19;97558.84;30001;983;1871;-60
2021/09/07 01:22:57;;;;;;;;;;;;;;;15.44;64.10;97552.56;30001;982;1880;-60
2021/09/07 01:23:27;;;;;;;;;;;;;;;15.43;64.00;97551.75;30001;982;1875;-61
2021/09/07 01:23:59;;;;;;;;;;;;;;;15.45;64.27;97550.62;30001;982;1862;-62
2021/09/07 01:24:29;;;;;;;;;;;;;;;15.46;64.02;97552.25;30001;982;1854;-61
2021/09/07 01:25:00;;;;;;;;;;;;;;;15.46;64.17;97555.78;30001;982;1880;-62
2021/09/07 01:25:31;;;;;;;;;;;;;;;15.45;64.10;97551.44;30001;983;1857;-61
2021/09/07 01:26:02;;;;;;;;;;;;;;;15.47;64.22;97545.66;30001;983;1875;-60
2021/09/07 01:26:33;;;;;;;;;;;;;;;15.47;64.01;97546.47;30001;983;1875;-61
2021/09/07 01:27:05;;;;;;;;;;;;;;;15.50;63.80;97551.34;30001;983;1879;-60
2021/09/07 01:27:36;;;;;;;;;;;;;;;15.52;63.71;97551.03;30001;983;1875;-61
2021/09/07 01:28:12;;;;;;;;;;;;;;;15.53;63.63;97544.44;30001;983;1879;-61
2021/09/07 01:28:44;;;;;;;;;;;;;;;15.54;63.63;97551.53;30001;983;1858;-61
2021/09/07 01:29:17;;;;;;;;;;;;;;;15.54;63.86;97554.25;30001;983;1875;-61
2021/09/07 01:29:51;;;;;;;;;;;;;;;15.54;63.34;97546.06;30001;983;1875;-61
2021/09/07 01:30:22;;;;;;;;;;;;;;;15.55;63.75;97545.75;30001;983;1862;-60
2021/09/07 01:30:53;;;;;;;;;;;;;;;15.56;63.58;97550.12;30001;982;1871;-60
2021/09/07 01:31:24;;;;;;;;;;;;;;;15.58;63.30;97552.56;30001;982;1880;-60
2021/09/07 01:31:58;;;;;;;;;;;;;;;15.58;63.67;97547.09;30001;982;1876;-61
2021/09/07 01:32:29;;;;;;;;;;;;;;;15.58;63.54;97544.34;30001;982;1880;-60
2021/09/07 01:33:00;;;;;;;;;;;;;;;15.57;63.30;97545.47;30001;983;1875;-59
2021/09/07 01:33:31;;;;;;;;;;;;;;;15.58;63.53;97547.09;30001;983;1879;-63
2021/09/07 01:34:02;;;;;;;;;;;;;;;15.58;63.15;97545.16;30001;983;1875;-60
2021/09/07 01:34:34;;;;;;;;;;;;;;;15.60;63.59;97551.09;30001;983;1879;-62
2021/09/07 01:35:05;;;;;;;;;;;;;;;15.59;63.11;97554.19;30001;983;1875;-62
2021/09/07 01:35:38;;;;;;;;;;;;;;;15.60;63.20;97544.81;30001;983;1862;-60
2021/09/07 01:36:10;;;;;;;;;;;;;;;15.59;63.25;97544.06;30001;983;1871;-61
2021/09/07 01:36:41;;;;;;;;;;;;;;;15.62;63.10;97548.06;30001;983;1880;-60
2021/09/07 01:37:12;;;;;;;;;;;;;;;15.61;63.28;97547.25;30001;982;1875;-61
2021/09/07 01:37:43;;;;;;;;;;;;;;;15.62;63.24;97545.31;30001;982;1879;-60
2021/09/07 01:38:14;;;;;;;;;;;;;;;15.60;63.10;97540.16;30001;982;1875;-61
2021/09/07 01:38:45;;;;;;;;;;;;;;;15.63;63.03;97549.69;30001;982;1787;-61
2021/09/07 01:39:16;;;;;;;;;;;;;;;15.63;63.15;97544.22;30001;982;1871;-62
2021/09/07 01:39:47;;;;;;;;;;;;;;;15.62;63.19;97540.66;30001;982;1880;-61
2021/09/07 01:40:18;;;;;;;;;;;;;;;15.63;63.26;97552.41;30001;982;1876;-61
2021/09/07 01:40:49;;;;;;;;;;;;;;;15.62;63.01;97546.13;30001;983;1879;-61
2021/09/07 01:41:20;;;;;;;;;;;;;;;15.62;62.99;97542.59;30001;983;1857;-61
2021/09/07 01:41:52;;;;;;;;;;;;;;;15.61;63.05;97547.25;30001;983;1875;-61
2021/09/07 01:42:24;;;;;;;;;;;;;;;15.61;62.97;97541.78;30001;983;1875;-61
2021/09/07 01:42:55;;;;;;;;;;;;;;;15.62;63.01;97539.84;30001;983;1879;-60
2021/09/07 01:43:26;;;;;;;;;;;;;;;15.62;63.40;97545.31;30001;983;1875;-60
2021/09/07 01:43:57;;;;;;;;;;;;;;;15.62;63.11;97550.81;30001;983;1880;-60
2021/09/07 01:44:28;;;;;;;;;;;;;;;15.62;63.09;97548.88;30001;983;1858;-60
2021/09/07 01:44:59;;;;;;;;;;;;;;;15.65;63.24;97547.44;30001;982;1875;-61
2021/09/07 01:45:29;;;;;;;;;;;;;;;15.64;63.38;97545.81;30001;982;1875;-65
2021/09/07 01:46:00;;;;;;;;;;;;;;;15.65;63.14;97542.78;30001;982;1880;-60
2021/09/07 01:46:31;;;;;;;;;;;;;;;15.66;62.98;97543.59;30001;982;1858;-60
2021/09/07 01:47:03;;;;;;;;;;;;;;;15.67;63.08;97547.94;30001;982;1876;-61
2021/09/07 01:47:34;;;;;;;;;;;;;;;15.67;63.05;97545.22;30001;982;1876;-61
2021/09/07 01:48:04;;;;;;;;;;;;;;;15.67;63.09;97548.75;30001;983;1879;-60
2021/09/07 01:48:35;;;;;;;;;;;;;;;15.67;62.98;97545.22;30001;983;1875;-60
2021/09/07 01:49:09;;;;;;;;;;;;;;;15.67;63.17;97545.22;30001;983;1879;-60
2021/09/07 01:49:40;;;;;;;;;;;;;;;15.66;63.21;97549.06;30001;983;1875;-61
2021/09/07 01:50:11;;;;;;;;;;;;;;;15.66;63.31;97549.06;30001;983;1879;-65
2021/09/07 01:50:43;;;;;;;;;;;;;;;15.66;62.95;97543.59;30001;983;1875;-60
2021/09/07 01:51:13;;;;;;;;;;;;;;;15.65;63.15;97548.25;30001;983;1880;-60
2021/09/07 01:51:44;;;;;;;;;;;;;;;15.66;63.03;97549.06;30001;983;1858;-60
2021/09/07 01:52:16;;;;;;;;;;;;;;;15.68;63.01;97542.16;30001;982;1875;-60
2021/09/07 01:52:46;;;;;;;;;;;;;;;15.68;62.96;97544.09;30001;982;1858;-65
2021/09/07 01:53:18;;;;;;;;;;;;;;;15.67;63.21;97547.94;30001;982;1876;-64
2021/09/07 01:53:49;;;;;;;;;;;;;;;15.66;62.99;97543.59;30001;982;1876;-61
2021/09/07 01:54:21;;;;;;;;;;;;;;;15.66;63.10;97538.94;30001;982;1880;-61
2021/09/07 01:54:52;;;;;;;;;;;;;;;15.66;63.33;97543.59;30001;982;1876;-60
2021/09/07 01:55:23;;;;;;;;;;;;;;;15.65;63.16;97541.97;30001;982;1880;-64
2021/09/07 01:55:53;;;;;;;;;;;;;;;15.64;63.40;97545.81;30001;983;1875;-61
2021/09/07 01:56:24;;;;;;;;;;;;;;;15.63;63.52;97544.22;30001;983;1879;-62
2021/09/07 01:56:55;;;;;;;;;;;;;;;15.62;63.29;97546.13;30001;983;1790;-62
2021/09/07 01:57:26;;;;;;;;;;;;;;;15.62;63.53;97542.59;30001;983;1862;-63
2021/09/07 01:57:57;;;;;;;;;;;;;;;15.61;63.25;97543.72;30001;983;1871;-61
2021/09/07 01:58:27;;;;;;;;;;;;;;;15.60;63.49;97542.09;30001;983;1880;-59
2021/09/07 01:58:58;;;;;;;;;;;;;;;15.60;63.41;97542.09;30001;983;1875;-60
2021/09/07 01:59:30;;;;;;;;;;;;;;;15.58;63.75;97541.63;30001;983;1880;-61
2021/09/07 02:00:01;;;;;;;;;;;;;;;15.57;63.39;97545.47;30001;982;1875;-61
2021/09/07 02:00:32;;;;;;;;;;;;;;;15.57;63.54;97545.47;30001;982;1862;-60
2021/09/07 02:01:02;;;;;;;;;;;;;;;15.54;63.41;97546.06;30001;982;1871;-61
2021/09/07 02:01:33;;;;;;;;;;;;;;;15.53;63.82;97547.19;30001;982;1880;-60
2021/09/07 02:02:04;;;;;;;;;;;;;;;15.53;63.68;97545.25;30001;982;1876;-60
2021/09/07 02:02:35;;;;;;;;;;;;;;;15.53;63.64;97547.19;30001;982;1880;-61
2021/09/07 02:03:09;;;;;;;;;;;;;;;15.51;63.85;97542.00;30001;982;1876;-60
2021/09/07 02:03:40;;;;;;;;;;;;;;;15.51;63.51;97546.66;30001;983;1879;-63
2021/09/07 02:04:13;;;;;;;;;;;;;;;15.50;63.90;97547.78;30001;983;1857;-60
2021/09/07 02:04:46;;;;;;;;;;;;;;;15.50;63.77;97539.59;30001;986;1875;-63
2021/09/07 02:05:16;;;;;;;;;;;;;;;15.50;63.79;97545.06;30001;983;1875;-61
2021/09/07 02:05:47;;;;;;;;;;;;;;;15.49;64.10;97544.25;30001;983;1880;-63
2021/09/07 02:06:18;;;;;;;;;;;;;;;15.47;63.87;97546.47;30001;983;1875;-63
2021/09/07 02:06:49;;;;;;;;;;;;;;;15.47;63.69;97542.94;30001;983;1879;-61
2021/09/07 02:07:20;;;;;;;;;;;;;;;15.47;64.24;97548.41;30001;983;1875;-60
2021/09/07 02:07:52;;;;;;;;;;;;;;;15.46;63.96;97544.84;30001;982;1880;-61
2021/09/07 02:08:23;;;;;;;;;;;;;;;15.46;64.04;97538.56;30001;982;1876;-61
2021/09/07 02:08:54;;;;;;;;;;;;;;;15.43;64.22;97535.34;30001;982;1880;-61
2021/09/07 02:09:26;;;;;;;;;;;;;;;15.43;64.35;97534.53;30001;982;1858;-60
2021/09/07 02:09:57;;;;;;;;;;;;;;;15.41;64.56;97537.56;30001;983;1875;-61
2021/09/07 02:10:28;;;;;;;;;;;;;;;15.40;64.51;97535.16;30001;983;1875;-63
2021/09/07 02:10:59;;;;;;;;;;;;;;;15.38;64.66;97538.19;30001;983;1879;-62
2021/09/07 02:11:30;;;;;;;;;;;;;;;15.37;64.68;97541.22;30001;983;1875;-61
2021/09/07 02:12:01;;;;;;;;;;;;;;;15.36;64.79;97539.63;30001;983;1879;-60
2021/09/07 02:12:32;;;;;;;;;;;;;;;15.34;64.95;97542.66;30001;983;1875;-60
2021/09/07 02:13:03;;;;;;;;;;;;;;;15.33;64.69;97535.56;30001;983;1879;-60
2021/09/07 02:13:34;;;;;;;;;;;;;;;15.32;65.02;97541.34;30001;983;1875;-61
2021/09/07 02:14:05;;;;;;;;;;;;;;;15.31;64.88;97532.31;30001;983;1880;-62
2021/09/07 02:14:36;;;;;;;;;;;;;;;15.31;64.83;97537.78;30001;983;1857;-60
2021/09/07 02:15:09;;;;;;;;;;;;;;;15.31;65.27;97540.53;30001;982;1858;-60
2021/09/07 02:15:40;;;;;;;;;;;;;;;15.30;65.29;97532.63;30001;982;1875;-60
2021/09/07 02:16:10;;;;;;;;;;;;;;;15.28;65.27;97538.41;30001;982;1880;-60
2021/09/07 02:16:45;;;;;;;;;;;;;;;15.27;65.21;97536.78;30001;982;1876;-62
2021/09/07 02:17:16;;;;;;;;;;;;;;;15.28;65.47;97537.59;30001;982;1880;-61
2021/09/07 02:17:47;;;;;;;;;;;;;;;15.26;65.28;97535.16;30001;983;1875;-61
2021/09/07 02:18:20;;;;;;;;;;;;;;;15.25;65.35;97539.03;30001;983;1879;-60
2021/09/07 02:18:51;;;;;;;;;;;;;;;15.25;65.30;97536.28;30001;983;1875;-60
2021/09/07 02:19:24;;;;;;;;;;;;;;;15.24;65.34;97536.63;30001;983;1879;-61
2021/09/07 02:19:55;;;;;;;;;;;;;;;15.22;65.31;97539.66;30001;983;1857;-60
2021/09/07 02:20:26;;;;;;;;;;;;;;;15.21;65.61;97532.56;30001;983;1875;-63
2021/09/07 02:20:57;;;;;;;;;;;;;;;15.20;65.70;97538.34;30001;983;1875;-61
2021/09/07 02:21:28;;;;;;;;;;;;;;;15.19;65.81;97540.28;30001;986;1880;-60
2021/09/07 02:21:59;;;;;;;;;;;;;;;15.18;65.74;97537.84;30001;983;1875;-61
2021/09/07 02:22:30;;;;;;;;;;;;;;;15.18;65.99;97535.09;30001;982;1880;-60
2021/09/07 02:23:04;;;;;;;;;;;;;;;15.16;65.90;97542.81;30001;982;1862;-60
2021/09/07 02:23:35;;;;;;;;;;;;;;;15.15;65.80;97544.72;30001;982;1880;-61
2021/09/07 02:24:05;;;;;;;;;;;;;;;15.13;66.04;97536.03;30001;982;1880;-60
2021/09/07 02:24:36;;;;;;;;;;;;;;;15.12;66.21;97534.41;30001;982;1884;-59
2021/09/07 02:25:10;;;;;;;;;;;;;;;15.11;66.32;97537.44;30001;983;1879;-60
2021/09/07 02:25:41;;;;;;;;;;;;;;;15.11;65.95;97535.53;30001;983;1883;-61
2021/09/07 02:26:12;;;;;;;;;;;;;;;15.10;66.05;97536.63;30001;983;1879;-62
2021/09/07 02:26:43;;;;;;;;;;;;;;;15.10;66.23;97542.09;30001;983;1883;-59
2021/09/07 02:27:14;;;;;;;;;;;;;;;15.09;66.28;97535.00;30001;983;1879;-61
2021/09/07 02:27:44;;;;;;;;;;;;;;;15.07;66.49;97538.06;30001;983;1836;-60
2021/09/07 02:28:15;;;;;;;;;;;;;;;15.08;66.17;97544.31;30001;983;1862;-60
2021/09/07 02:28:46;;;;;;;;;;;;;;;15.08;66.73;97533.41;30001;983;1880;-62
2021/09/07 02:29:17;;;;;;;;;;;;;;;15.07;66.72;97540.78;30001;982;1880;-60
2021/09/07 02:29:48;;;;;;;;;;;;;;;15.07;66.40;97542.72;30001;982;1884;-61
2021/09/07 02:30:19;;;;;;;;;;;;;;;15.06;66.87;97535.62;30001;982;1880;-61
2021/09/07 02:30:50;;;;;;;;;;;;;;;15.05;66.67;97540.28;30001;982;1867;-61
2021/09/07 02:31:21;;;;;;;;;;;;;;;15.03;66.71;97538.97;30001;982;1876;-60
2021/09/07 02:32:02;;;;;;;;;;;;;;;15.02;67.06;97537.34;30001;982;1867;-60
2021/09/07 02:32:32;;;;;;;;;;;;;;;15.00;66.84;97536.84;30001;983;1875;-63
2021/09/07 02:33:04;;;;;;;;;;;;;;;14.99;66.48;97536.03;30001;983;1884;-62
2021/09/07 02:33:35;;;;;;;;;;;;;;;14.98;66.95;97536.34;30001;983;1879;-61
2021/09/07 02:34:06;;;;;;;;;;;;;;;14.97;66.75;97542.91;30001;983;1884;-62
2021/09/07 02:34:37;;;;;;;;;;;;;;;14.96;66.88;97535.81;30001;983;1879;-60
2021/09/07 02:35:09;;;;;;;;;;;;;;;14.95;66.95;97532.28;30001;983;1884;-60
2021/09/07 02:35:40;;;;;;;;;;;;;;;14.96;67.10;97546.75;30001;983;1880;-61
2021/09/07 02:36:10;;;;;;;;;;;;;;;14.96;67.12;97542.09;30001;983;1866;-60
2021/09/07 02:36:42;;;;;;;;;;;;;;;14.95;67.08;97542.41;30001;983;1875;-60
2021/09/07 02:37:13;;;;;;;;;;;;;;;14.94;67.27;97533.41;30001;982;1884;-61
2021/09/07 02:37:44;;;;;;;;;;;;;;;14.94;67.36;97538.06;30001;982;1880;-60
2021/09/07 02:38:14;;;;;;;;;;;;;;;14.93;67.13;97531.78;30001;982;1884;-60
2021/09/07 02:38:45;;;;;;;;;;;;;;;14.93;67.11;97544.63;30001;982;1862;-61
2021/09/07 02:39:16;;;;;;;;;;;;;;;14.92;67.58;97538.38;30001;982;1880;-60
2021/09/07 02:39:47;;;;;;;;;;;;;;;14.93;67.62;97539.16;30001;982;1880;-61
2021/09/07 02:40:18;;;;;;;;;;;;;;;14.93;67.32;97536.44;30001;983;1884;-60
2021/09/07 02:40:49;;;;;;;;;;;;;;;14.90;68.82;97542.53;30001;983;1879;-60
2021/09/07 02:41:20;;;;;;;;;;;;;;;14.88;68.19;97539.31;30001;983;1866;-62
2021/09/07 02:41:51;;;;;;;;;;;;;;;14.84;68.79;97547.28;30001;983;1875;-61
2021/09/07 02:42:25;;;;;;;;;;;;;;;14.81;68.83;97539.69;30001;983;1884;-60
2021/09/07 02:42:56;;;;;;;;;;;;;;;14.79;68.87;97546.59;30001;983;1880;-61
2021/09/07 02:43:27;;;;;;;;;;;;;;;14.77;69.21;97543.34;30001;983;1884;-60
2021/09/07 02:43:58;;;;;;;;;;;;;;;14.74;69.08;97545.56;30001;983;1880;-61
2021/09/07 02:44:29;;;;;;;;;;;;;;;14.73;69.08;97543.94;30001;982;1884;-60
2021/09/07 02:45:00;;;;;;;;;;;;;;;14.72;69.50;97547.78;30001;982;1880;-60
2021/09/07 02:45:30;;;;;;;;;;;;;;;14.71;69.63;97545.38;30001;982;1867;-60
2021/09/07 02:46:03;;;;;;;;;;;;;;;14.70;70.19;97554.66;30001;982;1876;-60
2021/09/07 02:46:33;;;;;;;;;;;;;;;14.66;70.30;97543.53;30002;792;1014;-61
2021/09/07 02:47:04;;;;;;;;;;;;;;;14.65;70.15;97552.84;30001;982;1880;-60
2021/09/07 02:47:40;;;;;;;;;;;;;;;14.63;70.13;97544.13;30001;982;1884;-60